Time;durP1;ratioP1;P1;durP2;ratioP2;P2;SDS_P1;SDS_P2;PMS_P1;PMS_P2;Temp;Humidity;BMP_temperature;BMP_pressure;BME280_temperature;BME280_humidity;BME280_pressure;Samples;Min_cycle;Max_cycle;Signal;HPM_P1;HPM_P2
2024/02/21 00:00:53;;;;;;;13.20;5.57;;;10.10;99.90;;;;;;5014528;28;20412;-66
2024/02/21 00:03:19;;;;;;;10.30;4.93;;;10.00;99.90;;;;;;5014921;28;20419;-67
2024/02/21 00:05:45;;;;;;;14.43;6.37;;;10.00;99.90;;;;;;5019690;28;20183;-67
2024/02/21 00:08:13;;;;;;;10.63;5.40;;;9.90;99.90;;;;;;5014691;28;20519;-67
2024/02/21 00:10:38;;;;;;;17.27;6.77;;;10.00;99.90;;;;;;5020069;28;20195;-67
2024/02/21 00:13:04;;;;;;;10.30;5.73;;;10.00;99.90;;;;;;5017267;28;20420;-67
2024/02/21 00:15:30;;;;;;;9.60;5.37;;;10.00;99.90;;;;;;5018418;28;20224;-67
2024/02/21 00:17:55;;;;;;;9.80;5.50;;;10.10;99.90;;;;;;5019457;28;20208;-67
2024/02/21 00:20:21;;;;;;;11.47;5.53;;;10.00;99.90;;;;;;5020880;28;21264;-67
2024/02/21 00:22:47;;;;;;;10.50;5.57;;;10.00;99.90;;;;;;5014719;28;20588;-67
2024/02/21 00:25:12;;;;;;;17.63;5.77;;;10.10;99.90;;;;;;5019447;28;20258;-68
2024/02/21 00:27:39;;;;;;;8.50;4.90;;;10.10;99.90;;;;;;5017739;28;20643;-68
2024/02/21 00:30:05;;;;;;;14.13;5.33;;;10.10;99.90;;;;;;5016060;28;20187;-69
2024/02/21 00:32:32;;;;;;;12.40;5.10;;;10.10;99.90;;;;;;5018943;28;20823;-69
2024/02/21 00:34:57;;;;;;;9.23;5.77;;;10.10;99.90;;;;;;5016091;28;20436;-68
2024/02/21 00:37:23;;;;;;;15.70;5.87;;;10.20;99.90;;;;;;5025444;28;20494;-68
2024/02/21 00:39:48;;;;;;;12.97;5.80;;;10.20;99.90;;;;;;5018560;28;20267;-68
2024/02/21 00:42:14;;;;;;;7.73;4.30;;;10.10;99.90;;;;;;5027611;28;20268;-68
2024/02/21 00:44:39;;;;;;;13.83;5.40;;;10.10;99.90;;;;;;5023996;28;20256;-68
2024/02/21 00:47:05;;;;;;;13.03;5.00;;;10.10;99.90;;;;;;5019146;28;20197;-68
2024/02/21 00:49:31;;;;;;;10.90;5.00;;;10.10;99.90;;;;;;5012370;28;20189;-67
2024/02/21 00:51:56;;;;;;;8.47;5.20;;;10.10;99.90;;;;;;5012895;28;20235;-67
2024/02/21 00:54:22;;;;;;;8.27;5.73;;;10.00;99.90;;;;;;5012818;28;20613;-67
2024/02/21 00:56:48;;;;;;;6.93;4.17;;;10.10;99.90;;;;;;5015665;28;21044;-67
2024/02/21 00:59:14;;;;;;;13.80;5.20;;;10.00;99.90;;;;;;5020250;28;20494;-67
2024/02/21 01:01:42;;;;;;;11.83;5.23;;;10.10;99.90;;;;;;5017462;28;20196;-67
2024/02/21 01:04:09;;;;;;;11.87;4.93;;;10.20;99.90;;;;;;5016246;28;20188;-67
2024/02/21 01:06:34;;;;;;;7.13;4.50;;;10.20;99.90;;;;;;5019598;28;20432;-67
2024/02/21 01:09:00;;;;;;;8.17;4.60;;;10.10;99.90;;;;;;5019366;28;20440;-67
2024/02/21 01:11:25;;;;;;;8.87;4.40;;;10.20;99.90;;;;;;5009869;28;20250;-67
2024/02/21 01:13:51;;;;;;;12.07;5.70;;;10.20;99.90;;;;;;5020233;28;20279;-67
2024/02/21 01:16:16;;;;;;;10.53;4.67;;;10.10;99.90;;;;;;5016769;28;20203;-67
2024/02/21 01:18:42;;;;;;;9.97;4.77;;;10.10;99.90;;;;;;5021312;28;20210;-67
2024/02/21 01:21:08;;;;;;;11.20;4.57;;;10.10;99.90;;;;;;5014361;28;20189;-67
2024/02/21 01:23:37;;;;;;;12.80;5.10;;;10.00;99.90;;;;;;5015310;28;20182;-67
2024/02/21 01:26:03;;;;;;;9.10;4.67;;;10.10;99.90;;;;;;5013328;28;20172;-67
2024/02/21 01:28:29;;;;;;;12.40;4.60;;;10.00;99.90;;;;;;5019919;28;20514;-67
2024/02/21 01:30:54;;;;;;;11.80;5.07;;;10.00;99.90;;;;;;5015459;28;21015;-68
2024/02/21 01:33:20;;;;;;;12.70;4.10;;;9.90;99.90;;;;;;5012187;28;20193;-67
2024/02/21 01:35:45;;;;;;;13.93;4.23;;;9.80;99.90;;;;;;5014809;28;20188;-67
2024/02/21 01:38:13;;;;;;;10.93;4.53;;;9.80;99.90;;;;;;5013627;28;20307;-67
2024/02/21 01:40:38;;;;;;;12.13;4.70;;;9.90;99.90;;;;;;5020636;28;20181;-67
2024/02/21 01:43:15;;;;;;;9.27;4.50;;;9.90;99.90;;;;;;5011884;28;20428;-67
2024/02/21 01:45:40;;;;;;;10.33;4.23;;;9.80;99.90;;;;;;5012016;28;20228;-68
2024/02/21 01:48:06;;;;;;;11.10;4.23;;;9.80;99.90;;;;;;5015548;28;20424;-68
2024/02/21 01:50:33;;;;;;;10.60;4.67;;;9.80;99.90;;;;;;5012126;28;20332;-68
2024/02/21 01:52:59;;;;;;;12.47;3.93;;;9.80;99.90;;;;;;5017265;28;20481;-68
2024/02/21 01:55:24;;;;;;;12.93;4.97;;;9.90;99.90;;;;;;5014377;28;20460;-68
2024/02/21 01:57:50;;;;;;;7.67;3.83;;;9.80;99.90;;;;;;5015390;28;20459;-67
2024/02/21 02:00:16;;;;;;;10.03;4.47;;;9.90;99.90;;;;;;5015966;28;20185;-67
2024/02/21 02:02:42;;;;;;;9.60;3.90;;;9.90;99.90;;;;;;5012788;28;20411;-67
2024/02/21 02:05:08;;;;;;;9.70;3.90;;;9.90;99.90;;;;;;5012898;28;20467;-67
2024/02/21 02:07:33;;;;;;;9.07;4.00;;;9.80;99.90;;;;;;5016769;28;20670;-67
2024/02/21 02:09:59;;;;;;;7.97;4.40;;;9.80;99.90;;;;;;5014864;28;20235;-66
2024/02/21 02:12:25;;;;;;;9.27;4.00;;;9.70;99.90;;;;;;5015410;28;20268;-67
2024/02/21 02:15:04;;;;;;;18.30;5.00;;;9.70;99.90;;;;;;5016077;28;20456;-67
2024/02/21 02:17:30;;;;;;;9.70;5.20;;;9.70;99.90;;;;;;5016562;28;20203;-68
2024/02/21 02:19:56;;;;;;;9.17;4.40;;;9.70;99.90;;;;;;5012548;28;20503;-67
2024/02/21 02:22:27;;;;;;;8.13;4.40;;;9.70;99.90;;;;;;5011575;28;20474;-67
2024/02/21 02:24:53;;;;;;;12.53;4.70;;;9.70;99.90;;;;;;5016010;28;20193;-67
2024/02/21 02:27:19;;;;;;;7.43;4.03;;;9.60;99.90;;;;;;5014021;28;20453;-67
2024/02/21 02:29:44;;;;;;;11.53;4.80;;;9.70;99.90;;;;;;5013236;28;20571;-68
2024/02/21 02:32:10;;;;;;;10.40;4.97;;;9.70;99.90;;;;;;5012392;28;20183;-67
2024/02/21 02:34:36;;;;;;;16.97;5.67;;;9.60;99.90;;;;;;5016356;28;20211;-67
2024/02/21 02:37:01;;;;;;;12.03;4.43;;;9.60;99.90;;;;;;5015234;28;20988;-67
2024/02/21 02:39:27;;;;;;;14.43;4.97;;;9.50;99.90;;;;;;5012486;28;20181;-67
2024/02/21 02:41:53;;;;;;;7.80;4.43;;;9.60;99.90;;;;;;5012463;28;20185;-67
2024/02/21 02:44:18;;;;;;;7.40;4.43;;;9.60;99.90;;;;;;5014327;28;20288;-67
2024/02/21 02:46:44;;;;;;;9.40;4.13;;;9.60;99.90;;;;;;5010166;28;20184;-68
2024/02/21 02:49:09;;;;;;;7.70;4.50;;;9.60;99.90;;;;;;5009832;28;20607;-68
2024/02/21 02:51:35;;;;;;;6.90;4.33;;;9.70;99.90;;;;;;5013883;28;20549;-68
2024/02/21 02:54:01;;;;;;;6.97;4.20;;;9.60;99.90;;;;;;5014779;28;20963;-68
2024/02/21 02:56:27;;;;;;;10.43;4.40;;;9.60;99.90;;;;;;5013138;28;20647;-68
2024/02/21 02:58:52;;;;;;;9.87;4.83;;;9.60;99.90;;;;;;5015747;28;20515;-68
2024/02/21 03:01:18;;;;;;;7.50;4.13;;;9.70;99.90;;;;;;5012029;28;20187;-68
2024/02/21 03:03:45;;;;;;;7.60;4.53;;;9.70;99.90;;;;;;5010168;28;20208;-68
2024/02/21 03:06:10;;;;;;;10.97;4.37;;;9.80;99.90;;;;;;5013216;28;20181;-68
2024/02/21 03:08:36;;;;;;;8.83;4.43;;;9.80;99.90;;;;;;5009717;28;20439;-68
2024/02/21 03:11:02;;;;;;;9.47;4.17;;;9.70;99.90;;;;;;5012676;28;20544;-68
2024/02/21 03:13:27;;;;;;;7.77;4.63;;;9.80;99.90;;;;;;5016376;28;20261;-68
2024/02/21 03:15:53;;;;;;;6.53;3.90;;;9.70;99.90;;;;;;5015998;28;20214;-68
2024/02/21 03:18:18;;;;;;;10.83;4.90;;;9.60;99.90;;;;;;5017441;28;20814;-68
2024/02/21 03:20:44;;;;;;;11.60;4.40;;;9.70;99.90;;;;;;5015658;28;20177;-68
2024/02/21 03:23:09;;;;;;;10.63;4.43;;;9.60;99.90;;;;;;5011365;28;20188;-68
2024/02/21 03:25:35;;;;;;;13.53;5.10;;;9.70;99.90;;;;;;5011434;28;20275;-68
2024/02/21 03:28:01;;;;;;;10.47;4.20;;;9.70;99.90;;;;;;5010668;28;20196;-68
2024/02/21 03:30:27;;;;;;;7.47;4.40;;;9.70;99.90;;;;;;5015103;28;20184;-68
2024/02/21 03:32:52;;;;;;;13.60;5.10;;;9.70;99.90;;;;;;5020095;28;20415;-68
2024/02/21 03:35:18;;;;;;;8.40;4.83;;;9.70;99.90;;;;;;5012146;28;20208;-68
2024/02/21 03:37:45;;;;;;;8.67;4.50;;;9.80;99.90;;;;;;5019057;28;20221;-68
2024/02/21 03:40:11;;;;;;;10.47;4.80;;;9.80;99.90;;;;;;5015563;28;20196;-68
2024/02/21 03:42:38;;;;;;;10.20;4.20;;;9.70;99.90;;;;;;5012417;28;20423;-68
2024/02/21 03:45:04;;;;;;;11.60;4.60;;;9.60;99.90;;;;;;5011577;28;20223;-67
2024/02/21 03:47:29;;;;;;;10.50;4.27;;;9.60;99.90;;;;;;5012821;28;20449;-68
2024/02/21 03:49:55;;;;;;;11.70;5.07;;;9.50;99.90;;;;;;5011393;28;21191;-68
2024/02/21 03:52:21;;;;;;;8.67;4.30;;;9.60;99.90;;;;;;5013723;28;20246;-68
2024/02/21 03:54:46;;;;;;;11.70;4.97;;;9.60;99.90;;;;;;5010134;28;20296;-68
2024/02/21 03:57:12;;;;;;;9.93;3.70;;;9.60;99.90;;;;;;5015601;28;20204;-68
2024/02/21 03:59:39;;;;;;;8.50;4.67;;;9.50;99.90;;;;;;5008691;28;20223;-68
2024/02/21 04:02:08;;;;;;;16.97;4.83;;;9.50;99.90;;;;;;5008045;28;20512;-67
2024/02/21 04:04:37;;;;;;;7.90;4.43;;;9.50;99.90;;;;;;5011689;28;20440;-68
2024/02/21 04:07:06;;;;;;;11.97;4.63;;;9.30;99.90;;;;;;5010648;28;20438;-68
2024/02/21 04:09:33;;;;;;;13.50;4.17;;;9.30;99.90;;;;;;5017918;28;20458;-68
2024/02/21 04:11:59;;;;;;;16.40;5.13;;;9.20;99.90;;;;;;5016126;28;20419;-68
2024/02/21 04:14:25;;;;;;;8.13;3.87;;;9.30;99.90;;;;;;5011289;28;20473;-68
2024/02/21 04:16:50;;;;;;;10.43;4.60;;;9.20;99.90;;;;;;5014741;28;20466;-68
2024/02/21 04:19:16;;;;;;;7.20;4.23;;;9.20;99.90;;;;;;5013329;28;20591;-67
2024/02/21 04:21:42;;;;;;;9.07;4.83;;;9.10;99.90;;;;;;5013786;28;20661;-68
2024/02/21 04:24:07;;;;;;;13.27;4.70;;;9.10;99.90;;;;;;5014317;28;20205;-68
2024/02/21 04:26:34;;;;;;;8.30;4.90;;;9.10;99.90;;;;;;5012584;28;20208;-68
2024/02/21 04:28:59;;;;;;;13.70;5.23;;;9.00;99.90;;;;;;5012399;28;20185;-68
2024/02/21 04:31:25;;;;;;;11.63;5.50;;;9.00;99.90;;;;;;5014163;28;20420;-68
2024/02/21 04:33:50;;;;;;;9.30;5.30;;;8.90;99.90;;;;;;5016298;28;20592;-68
2024/02/21 04:36:16;;;;;;;9.43;4.53;;;8.90;99.90;;;;;;5014699;28;20191;-68
2024/02/21 04:38:42;;;;;;;12.17;4.80;;;8.90;99.90;;;;;;5015213;28;20220;-67
2024/02/21 04:41:08;;;;;;;15.63;5.57;;;8.90;99.90;;;;;;5019695;28;20228;-69
2024/02/21 04:43:33;;;;;;;9.87;5.17;;;9.00;99.90;;;;;;5015517;28;20189;-68
2024/02/21 04:46:00;;;;;;;10.03;4.80;;;9.10;99.90;;;;;;5013699;28;20424;-68
2024/02/21 04:48:25;;;;;;;12.10;7.13;;;9.10;99.90;;;;;;5014659;28;20242;-68
2024/02/21 04:50:51;;;;;;;11.33;4.37;;;9.00;99.90;;;;;;5020858;28;20447;-68
2024/02/21 04:53:17;;;;;;;10.93;4.53;;;9.10;99.90;;;;;;5018496;28;20176;-68
2024/02/21 04:55:43;;;;;;;10.27;5.23;;;9.10;99.90;;;;;;5021603;28;20208;-67
2024/02/21 04:58:08;;;;;;;11.80;5.53;;;9.10;99.90;;;;;;5016783;28;20220;-68
2024/02/21 05:00:34;;;;;;;15.47;5.20;;;9.00;99.90;;;;;;5012120;28;20691;-68
2024/02/21 05:02:59;;;;;;;15.00;5.20;;;9.00;99.90;;;;;;5017431;28;20254;-68
2024/02/21 05:05:25;;;;;;;14.17;5.10;;;9.00;99.90;;;;;;5015809;28;20212;-67
2024/02/21 05:07:51;;;;;;;11.70;5.37;;;9.00;99.90;;;;;;5011383;28;20319;-68
2024/02/21 05:10:17;;;;;;;9.10;4.83;;;8.90;99.90;;;;;;5013945;28;20227;-68
2024/02/21 05:12:43;;;;;;;14.53;5.80;;;8.80;99.90;;;;;;5009845;28;20184;-67
2024/02/21 05:15:08;;;;;;;10.80;5.07;;;8.70;99.90;;;;;;5015815;28;20463;-68
2024/02/21 05:17:34;;;;;;;10.97;5.10;;;8.70;99.90;;;;;;5017232;28;20212;-68
2024/02/21 05:19:59;;;;;;;14.10;5.80;;;8.70;99.90;;;;;;5021588;28;20558;-68
2024/02/21 05:22:25;;;;;;;7.23;4.17;;;8.70;99.90;;;;;;5017665;28;20185;-68
2024/02/21 05:24:51;;;;;;;11.43;5.43;;;8.60;99.90;;;;;;5010795;28;20273;-67
2024/02/21 05:27:16;;;;;;;14.10;5.50;;;8.50;99.90;;;;;;5016366;28;20267;-68
2024/02/21 05:29:42;;;;;;;13.90;6.20;;;8.40;99.90;;;;;;5013216;28;20182;-68
2024/02/21 05:32:07;;;;;;;13.33;5.80;;;8.40;99.90;;;;;;5013298;28;20195;-68
2024/02/21 05:34:33;;;;;;;14.03;5.67;;;8.40;99.90;;;;;;5012345;28;21142;-68
2024/02/21 05:37:00;;;;;;;15.13;5.17;;;8.40;99.90;;;;;;5016498;28;20207;-68
2024/02/21 05:39:25;;;;;;;11.50;5.37;;;8.40;99.90;;;;;;5013000;28;20184;-68
2024/02/21 05:41:51;;;;;;;9.50;4.77;;;8.40;99.90;;;;;;5016055;28;20805;-68
2024/02/21 05:44:17;;;;;;;9.30;5.37;;;8.40;99.90;;;;;;5013478;28;20212;-68
2024/02/21 05:46:42;;;;;;;7.97;4.73;;;8.50;99.90;;;;;;5016971;28;20355;-68
2024/02/21 05:49:08;;;;;;;10.80;4.60;;;8.50;99.90;;;;;;5012779;28;20177;-68
2024/02/21 05:51:34;;;;;;;12.53;5.53;;;8.40;99.90;;;;;;5011851;28;20181;-68
2024/02/21 05:54:00;;;;;;;18.63;5.67;;;8.40;99.90;;;;;;5012310;28;20243;-68
2024/02/21 05:56:26;;;;;;;11.03;4.63;;;8.40;99.90;;;;;;5010630;28;20957;-68
2024/02/21 05:58:51;;;;;;;13.93;5.23;;;8.30;99.90;;;;;;5014217;28;20471;-68
2024/02/21 06:01:21;;;;;;;10.43;4.33;;;8.40;99.90;;;;;;5011524;28;20267;-68
2024/02/21 06:03:47;;;;;;;6.17;4.13;;;8.30;99.90;;;;;;5013684;28;20231;-68
2024/02/21 06:06:14;;;;;;;8.20;4.80;;;8.30;99.90;;;;;;5013407;28;20602;-67
2024/02/21 06:08:40;;;;;;;16.57;5.17;;;8.20;99.90;;;;;;5014770;28;20435;-68
2024/02/21 06:11:06;;;;;;;11.90;5.30;;;8.20;99.90;;;;;;5016329;28;20444;-68
2024/02/21 06:13:32;;;;;;;7.70;5.23;;;8.10;99.90;;;;;;5012428;28;20434;-68
2024/02/21 06:15:57;;;;;;;10.63;4.83;;;8.10;99.90;;;;;;5013195;28;20204;-68
2024/02/21 06:18:23;;;;;;;16.83;5.87;;;8.20;99.90;;;;;;5018532;28;20219;-68
2024/02/21 06:20:52;;;;;;;10.37;4.80;;;8.20;99.90;;;;;;5016402;28;20937;-67
2024/02/21 06:23:18;;;;;;;12.10;5.77;;;8.20;99.90;;;;;;5007187;28;20551;-68
2024/02/21 06:25:44;;;;;;;13.00;4.90;;;8.20;99.90;;;;;;5014200;28;20417;-68
2024/02/21 06:28:09;;;;;;;9.23;5.10;;;8.10;99.90;;;;;;5015412;28;20204;-67
2024/02/21 06:30:36;;;;;;;11.77;5.67;;;8.10;99.90;;;;;;5013655;28;20188;-68
2024/02/21 06:33:02;;;;;;;13.27;5.23;;;8.10;99.90;;;;;;5014871;28;20181;-68
2024/02/21 06:35:28;;;;;;;13.27;5.00;;;8.10;99.90;;;;;;5011725;28;20444;-68
2024/02/21 06:37:54;;;;;;;11.37;6.00;;;8.10;99.90;;;;;;5019761;28;20565;-68
2024/02/21 06:40:24;;;;;;;9.30;5.57;;;8.10;99.90;;;;;;5010993;28;20443;-68
2024/02/21 06:42:50;;;;;;;11.50;5.23;;;8.10;99.90;;;;;;5011069;28;20535;-68
2024/02/21 06:45:16;;;;;;;11.73;4.93;;;8.10;99.90;;;;;;5016148;28;20436;-68
2024/02/21 06:47:43;;;;;;;11.80;5.00;;;8.00;99.90;;;;;;5017406;28;20570;-68
2024/02/21 06:50:09;;;;;;;11.90;5.10;;;8.00;99.90;;;;;;5017907;28;20443;-68
2024/02/21 06:52:35;;;;;;;14.80;5.17;;;8.10;99.90;;;;;;5012949;28;20948;-68
2024/02/21 06:55:01;;;;;;;7.67;4.77;;;8.00;99.90;;;;;;5009830;28;20510;-68
2024/02/21 06:57:29;;;;;;;9.53;4.60;;;8.00;99.90;;;;;;5015057;28;21031;-68
2024/02/21 06:59:55;;;;;;;11.50;5.90;;;8.00;99.90;;;;;;5015490;28;20189;-68
2024/02/21 07:02:21;;;;;;;10.90;5.87;;;8.10;99.90;;;;;;5013558;28;20430;-68
2024/02/21 07:04:46;;;;;;;11.50;5.23;;;8.20;99.90;;;;;;5014276;28;20218;-68
2024/02/21 07:07:12;;;;;;;8.80;5.33;;;8.20;99.90;;;;;;5014685;28;20527;-68
2024/02/21 07:09:38;;;;;;;11.27;5.50;;;8.20;99.90;;;;;;5013343;28;20195;-66
2024/02/21 07:12:04;;;;;;;9.37;5.17;;;8.30;99.90;;;;;;5013050;28;20440;-67
2024/02/21 07:14:32;;;;;;;9.50;4.97;;;8.40;99.90;;;;;;5016699;28;20463;-67
2024/02/21 07:16:58;;;;;;;19.43;4.80;;;8.50;99.90;;;;;;5014819;28;20891;-68
2024/02/21 07:19:23;;;;;;;14.80;5.20;;;8.30;99.90;;;;;;5014746;28;20419;-68
2024/02/21 07:21:49;;;;;;;10.80;4.87;;;8.40;99.90;;;;;;5012441;28;20188;-68
2024/02/21 07:24:14;;;;;;;9.70;5.27;;;8.40;99.90;;;;;;5013457;28;20737;-66
2024/02/21 07:26:44;;;;;;;11.87;5.53;;;8.50;99.90;;;;;;5014831;28;20217;-67
2024/02/21 07:29:10;;;;;;;14.70;5.53;;;8.50;99.90;;;;;;5013369;28;20276;-68
2024/02/21 07:31:42;;;;;;;10.33;4.50;;;8.60;99.90;;;;;;5012704;28;20443;-65
2024/02/21 07:34:08;;;;;;;15.07;5.30;;;8.60;99.90;;;;;;5005793;28;20491;-66
2024/02/21 07:36:33;;;;;;;9.17;5.47;;;8.40;99.90;;;;;;5027116;28;20461;-64
2024/02/21 07:38:59;;;;;;;9.50;4.60;;;8.40;99.90;;;;;;5024980;28;20251;-65
2024/02/21 07:41:26;;;;;;;10.67;4.93;;;8.40;99.90;;;;;;5028525;28;20186;-65
2024/02/21 07:43:52;;;;;;;6.60;4.23;;;8.60;99.90;;;;;;5017724;28;20236;-65
2024/02/21 07:46:18;;;;;;;14.50;5.50;;;8.60;99.90;;;;;;5018084;28;20480;-65
2024/02/21 07:48:45;;;;;;;10.40;5.10;;;8.60;99.90;;;;;;5011159;28;20187;-65
2024/02/21 07:51:11;;;;;;;12.13;4.43;;;8.60;99.90;;;;;;5016081;28;20426;-64
2024/02/21 07:53:38;;;;;;;7.80;3.93;;;8.60;99.90;;;;;;5016262;28;20444;-64
2024/02/21 07:56:04;;;;;;;11.33;6.67;;;8.70;99.90;;;;;;5019411;28;20215;-65
2024/02/21 07:58:30;;;;;;;8.67;5.00;;;8.70;99.90;;;;;;5021676;28;20969;-65
2024/02/21 08:00:55;;;;;;;14.00;5.20;;;8.70;99.90;;;;;;5018550;28;20271;-64
2024/02/21 08:03:21;;;;;;;7.80;4.60;;;8.90;99.90;;;;;;5027200;28;20250;-65
2024/02/21 08:05:47;;;;;;;10.43;5.40;;;9.00;99.90;;;;;;5024906;28;20655;-65
2024/02/21 08:08:18;;;;;;;11.03;5.63;;;9.10;99.90;;;;;;5017132;28;20188;-65
2024/02/21 08:10:43;;;;;;;12.87;5.20;;;9.20;99.90;;;;;;5028351;28;20190;-65
2024/02/21 08:13:09;;;;;;;7.13;4.63;;;9.20;99.90;;;;;;5020364;28;20526;-65
2024/02/21 08:15:34;;;;;;;9.43;5.40;;;9.30;99.90;;;;;;5023315;28;20243;-65
2024/02/21 08:18:01;;;;;;;9.63;4.80;;;9.30;99.90;;;;;;5016493;28;20216;-65
2024/02/21 08:20:27;;;;;;;11.43;4.30;;;9.40;99.90;;;;;;5019232;28;20663;-66
2024/02/21 08:22:52;;;;;;;7.80;4.33;;;9.40;99.90;;;;;;5012970;28;20471;-65
2024/02/21 08:25:18;;;;;;;9.67;5.00;;;9.50;99.90;;;;;;5019654;28;20451;-65
2024/02/21 08:27:45;;;;;;;9.43;4.83;;;9.60;99.90;;;;;;5017465;28;20192;-65
2024/02/21 08:30:11;;;;;;;15.60;6.00;;;9.60;99.90;;;;;;5011775;28;20856;-65
2024/02/21 08:32:37;;;;;;;10.37;4.70;;;9.60;99.90;;;;;;5017411;28;20419;-64
2024/02/21 08:35:03;;;;;;;11.93;4.80;;;9.70;99.90;;;;;;5016439;28;20456;-64
2024/02/21 08:37:28;;;;;;;9.50;5.07;;;9.70;99.90;;;;;;5019529;28;20269;-64
2024/02/21 08:39:54;;;;;;;13.10;5.10;;;9.80;99.90;;;;;;5010505;28;20922;-65
2024/02/21 08:42:19;;;;;;;7.20;4.57;;;9.90;99.90;;;;;;5013312;28;20216;-66
2024/02/21 08:44:45;;;;;;;10.07;5.03;;;9.90;99.90;;;;;;5017151;28;20711;-65
2024/02/21 08:47:11;;;;;;;8.50;4.47;;;9.90;99.90;;;;;;5016439;28;20200;-65
2024/02/21 08:49:37;;;;;;;8.93;4.70;;;10.00;99.90;;;;;;5013672;28;20185;-65
2024/02/21 08:52:05;;;;;;;13.90;5.50;;;10.10;99.90;;;;;;5015242;28;20235;-65
2024/02/21 08:54:31;;;;;;;8.60;5.07;;;10.10;99.90;;;;;;5015966;28;20521;-65
2024/02/21 08:56:56;;;;;;;15.97;5.23;;;10.10;99.90;;;;;;5018810;28;20451;-65
2024/02/21 08:59:22;;;;;;;11.13;4.90;;;10.10;99.90;;;;;;5016919;28;20687;-66
2024/02/21 09:01:48;;;;;;;8.53;5.33;;;10.10;99.90;;;;;;5017650;28;20189;-66
2024/02/21 09:04:13;;;;;;;14.40;5.20;;;10.20;99.90;;;;;;5015302;28;20223;-66
2024/02/21 09:06:42;;;;;;;10.80;4.47;;;10.30;99.90;;;;;;5013140;28;20194;-66
2024/02/21 09:09:09;;;;;;;10.40;4.50;;;10.40;99.90;;;;;;5015463;28;20191;-65
2024/02/21 09:11:35;;;;;;;15.20;8.47;;;10.40;99.90;;;;;;5013015;28;20427;-66
2024/02/21 09:14:00;;;;;;;9.60;5.23;;;10.40;99.90;;;;;;5014610;28;20938;-66
2024/02/21 09:16:26;;;;;;;10.63;4.37;;;10.50;99.90;;;;;;5018533;28;20287;-66
2024/02/21 09:18:52;;;;;;;10.23;4.80;;;10.50;99.90;;;;;;5016393;28;20637;-66
2024/02/21 09:21:18;;;;;;;9.33;4.87;;;10.60;99.90;;;;;;5018829;28;20690;-66
2024/02/21 09:23:45;;;;;;;9.33;4.53;;;10.70;99.90;;;;;;5016641;28;20546;-67
2024/02/21 09:26:13;;;;;;;6.30;3.70;;;10.70;99.90;;;;;;5018560;28;20181;-67
2024/02/21 09:28:39;;;;;;;8.67;4.63;;;10.80;99.90;;;;;;5013462;28;20482;-66
2024/02/21 09:31:05;;;;;;;9.60;4.60;;;10.70;99.90;;;;;;5012752;28;20459;-66
2024/02/21 09:33:30;;;;;;;12.97;4.67;;;10.80;99.90;;;;;;5018654;28;20242;-65
2024/02/21 09:35:56;;;;;;;8.60;3.83;;;10.90;99.90;;;;;;5015089;28;20192;-66
2024/02/21 09:38:22;;;;;;;7.67;4.13;;;11.00;99.90;;;;;;5013338;28;20212;-66
2024/02/21 09:40:48;;;;;;;13.67;4.77;;;11.10;99.90;;;;;;5014164;28;20272;-66
2024/02/21 09:43:17;;;;;;;9.87;4.10;;;11.20;99.90;;;;;;5018469;28;20197;-66
2024/02/21 09:45:46;;;;;;;8.83;3.83;;;11.20;99.90;;;;;;5013795;28;20435;-65
2024/02/21 09:48:42;;;;;;;14.00;3.80;;;11.30;99.90;;;;;;5019595;28;20423;-66
2024/02/21 09:51:10;;;;;;;9.77;4.30;;;11.40;99.90;;;;;;5018396;28;20431;-67
2024/02/21 09:53:38;;;;;;;7.83;4.07;;;11.40;99.90;;;;;;5017524;28;20447;-66
2024/02/21 09:56:07;;;;;;;7.03;4.10;;;11.40;99.90;;;;;;5015502;28;20426;-66
2024/02/21 09:58:33;;;;;;;8.03;4.07;;;11.40;99.90;;;;;;5015314;28;20523;-64
2024/02/21 10:01:00;;;;;;;9.60;4.20;;;11.40;99.90;;;;;;5009917;28;20436;-64
2024/02/21 10:03:26;;;;;;;11.27;3.97;;;11.50;99.90;;;;;;5012490;28;20424;-64
2024/02/21 10:05:51;;;;;;;16.03;5.17;;;11.50;99.90;;;;;;5011620;28;20526;-64
2024/02/21 10:08:17;;;;;;;10.47;4.57;;;11.40;99.90;;;;;;5015900;28;20434;-65
2024/02/21 10:10:44;;;;;;;9.10;3.60;;;11.40;99.90;;;;;;5013443;28;20187;-65
2024/02/21 10:13:11;;;;;;;8.53;4.43;;;11.50;99.90;;;;;;5016158;28;20439;-65
2024/02/21 10:15:37;;;;;;;9.37;3.67;;;11.50;99.90;;;;;;5016186;28;20984;-66
2024/02/21 10:18:06;;;;;;;7.90;4.30;;;11.50;99.90;;;;;;5012758;28;20466;-65
2024/02/21 10:20:33;;;;;;;9.83;4.77;;;11.50;99.90;;;;;;5019918;28;20189;-65
2024/02/21 10:23:07;;;;;;;8.00;4.00;;;11.60;99.90;;;;;;5015462;28;21055;-65
2024/02/21 10:25:41;;;;;;;8.23;4.00;;;11.70;99.90;;;;;;5010804;28;20463;-65
2024/02/21 10:28:07;;;;;;;14.20;4.10;;;11.80;99.90;;;;;;5013687;28;20933;-65
2024/02/21 10:30:32;;;;;;;9.87;3.73;;;11.90;99.90;;;;;;5013696;28;20424;-65
2024/02/21 10:32:58;;;;;;;10.70;3.60;;;11.90;99.90;;;;;;5015344;28;20271;-64
2024/02/21 10:35:32;;;;;;;8.13;4.30;;;12.00;99.90;;;;;;5015676;28;20294;-64
2024/02/21 10:37:58;;;;;;;8.77;4.27;;;12.00;99.90;;;;;;5009019;28;20275;-65
2024/02/21 10:40:25;;;;;;;10.80;4.00;;;12.00;99.90;;;;;;5018170;28;20435;-64
2024/02/21 10:43:00;;;;;;;7.33;3.43;;;12.00;99.90;;;;;;5010873;28;20423;-64
2024/02/21 10:45:35;;;;;;;10.00;4.40;;;11.90;99.90;;;;;;5010442;28;20486;-65
2024/02/21 10:48:24;;;;;;;10.73;3.90;;;12.00;99.90;;;;;;5010862;28;21209;-64
2024/02/21 10:50:56;;;;;;;12.30;4.20;;;12.10;99.90;;;;;;5010321;28;20486;-65
2024/02/21 10:53:39;;;;;;;8.87;3.20;;;12.30;99.90;;;;;;5012909;28;20424;-65
2024/02/21 10:56:23;;;;;;;8.43;3.80;;;12.30;99.90;;;;;;5014220;28;20486;-65
2024/02/21 10:58:49;;;;;;;11.80;3.50;;;12.30;99.90;;;;;;5016218;28;20467;-65
2024/02/21 11:01:15;;;;;;;5.07;2.90;;;12.20;99.90;;;;;;5009952;28;20435;-65
2024/02/21 11:03:45;;;;;;;8.50;3.27;;;12.20;99.90;;;;;;5010063;28;20527;-64
2024/02/21 11:06:13;;;;;;;8.47;3.27;;;12.40;99.90;;;;;;5017786;28;20408;-64
2024/02/21 11:08:39;;;;;;;5.50;2.90;;;12.40;99.90;;;;;;5008193;28;20440;-65
2024/02/21 11:11:05;;;;;;;7.50;3.63;;;12.50;99.90;;;;;;5009498;28;20516;-65
2024/02/21 11:13:32;;;;;;;7.67;3.60;;;12.70;99.90;;;;;;5010838;28;20188;-65
2024/02/21 11:16:20;;;;;;;6.93;3.03;;;12.70;99.90;;;;;;5013078;28;20882;-65
2024/02/21 11:18:46;;;;;;;6.67;2.63;;;12.80;99.90;;;;;;5010358;28;20476;-66
2024/02/21 11:21:11;;;;;;;8.80;3.27;;;12.80;99.90;;;;;;5009681;28;20454;-65
2024/02/21 11:23:37;;;;;;;7.87;3.70;;;12.90;99.90;;;;;;5010845;28;20271;-66
2024/02/21 11:26:10;;;;;;;11.87;3.40;;;13.00;99.90;;;;;;5012552;28;20191;-65
2024/02/21 11:28:38;;;;;;;6.17;3.40;;;13.10;99.90;;;;;;5010372;28;20199;-65
2024/02/21 11:31:22;;;;;;;9.00;3.30;;;13.00;99.90;;;;;;5011202;28;20578;-65
2024/02/21 11:33:48;;;;;;;9.60;3.70;;;12.90;99.90;;;;;;5011690;28;20463;-64
2024/02/21 11:36:25;;;;;;;5.53;3.03;;;13.00;99.90;;;;;;5014437;28;20948;-65
2024/02/21 11:38:51;;;;;;;8.33;3.40;;;13.00;99.90;;;;;;5017996;28;20274;-65
2024/02/21 11:41:17;;;;;;;7.03;3.20;;;13.10;99.90;;;;;;5015030;28;20423;-64
2024/02/21 11:43:43;;;;;;;8.40;2.77;;;13.00;99.90;;;;;;5020635;28;20447;-68
2024/02/21 11:46:09;;;;;;;4.80;2.90;;;13.10;99.90;;;;;;5008414;28;20812;-64
2024/02/21 11:48:34;;;;;;;5.57;2.67;;;13.10;99.90;;;;;;5017078;28;20754;-64
2024/02/21 11:51:00;;;;;;;7.03;3.13;;;13.10;99.90;;;;;;5019817;28;20520;-64
2024/02/21 11:53:30;;;;;;;7.90;3.37;;;13.00;99.90;;;;;;5019227;28;20188;-64
2024/02/21 11:55:56;;;;;;;5.63;2.83;;;13.20;99.90;;;;;;5016137;28;20473;-64
2024/02/21 11:58:22;;;;;;;6.03;3.13;;;13.20;99.90;;;;;;5014661;28;20495;-64
2024/02/21 12:00:48;;;;;;;7.47;2.93;;;13.20;99.90;;;;;;5013194;28;20435;-64
2024/02/21 12:03:15;;;;;;;4.80;2.80;;;13.20;99.90;;;;;;5014775;28;20420;-64
2024/02/21 12:05:41;;;;;;;9.60;3.50;;;13.20;99.90;;;;;;5017337;28;20212;-64
2024/02/21 12:08:07;;;;;;;8.83;3.37;;;13.20;99.90;;;;;;5016546;28;20454;-65
2024/02/21 12:10:35;;;;;;;11.27;3.30;;;13.30;99.90;;;;;;5021899;28;20443;-65
2024/02/21 12:13:10;;;;;;;7.37;3.17;;;13.40;99.90;;;;;;5017458;28;20431;-65
2024/02/21 12:15:35;;;;;;;8.77;3.50;;;13.40;99.90;;;;;;5018099;28;20458;-64
2024/02/21 12:18:01;;;;;;;12.03;3.57;;;13.20;99.90;;;;;;5016487;28;20474;-65
2024/02/21 12:20:27;;;;;;;6.83;3.37;;;13.10;99.90;;;;;;5013801;28;20254;-64
2024/02/21 12:22:53;;;;;;;8.20;3.93;;;13.00;99.90;;;;;;5016551;28;20177;-65
2024/02/21 12:25:22;;;;;;;4.23;2.40;;;13.20;99.90;;;;;;5012122;28;20301;-66
2024/02/21 12:27:49;;;;;;;7.40;3.10;;;13.30;99.90;;;;;;5010536;28;20428;-65
2024/02/21 12:30:15;;;;;;;11.47;4.23;;;13.30;99.90;;;;;;5016567;28;20499;-65
2024/02/21 12:32:41;;;;;;;5.83;3.67;;;13.30;99.90;;;;;;5018695;28;20431;-65
2024/02/21 12:35:07;;;;;;;5.90;3.30;;;13.30;99.90;;;;;;5012020;28;20822;-65
2024/02/21 12:37:33;;;;;;;8.17;3.43;;;13.40;99.90;;;;;;5014425;28;20831;-64
2024/02/21 12:39:58;;;;;;;6.50;3.17;;;13.50;99.90;;;;;;5016614;28;20439;-64
2024/02/21 12:42:25;;;;;;;7.90;4.07;;;13.50;99.90;;;;;;5019659;28;20204;-64
2024/02/21 12:44:52;;;;;;;10.30;4.40;;;13.40;99.90;;;;;;5019116;28;21210;-64